sensor_id;sensor_type;location;lat;lon;timestamp;P1;durP1;ratioP1;P2;durP2;ratioP2
56239;SDS011;42154;51.992;5.896;2023-07-31T00:02:07;0.93;;;0.75;;
56239;SDS011;42154;51.992;5.896;2023-07-31T00:04:32;1.83;;;0.75;;
56239;SDS011;42154;51.992;5.896;2023-07-31T00:06:58;0.98;;;0.70;;
56239;SDS011;42154;51.992;5.896;2023-07-31T00:09:24;0.98;;;0.80;;
56239;SDS011;42154;51.992;5.896;2023-07-31T00:11:49;1.00;;;0.70;;
56239;SDS011;42154;51.992;5.896;2023-07-31T00:14:15;1.00;;;0.75;;
56239;SDS011;42154;51.992;5.896;2023-07-31T00:16:41;0.80;;;0.77;;
56239;SDS011;42154;51.992;5.896;2023-07-31T00:19:06;1.17;;;0.98;;
56239;SDS011;42154;51.992;5.896;2023-07-31T00:21:32;0.65;;;0.60;;
56239;SDS011;42154;51.992;5.896;2023-07-31T00:23:58;1.25;;;0.60;;
56239;SDS011;42154;51.992;5.896;2023-07-31T00:26:24;0.90;;;0.80;;
56239;SDS011;42154;51.992;5.896;2023-07-31T00:28:49;1.40;;;0.90;;
56239;SDS011;42154;51.992;5.896;2023-07-31T00:31:15;0.80;;;0.60;;
56239;SDS011;42154;51.992;5.896;2023-07-31T00:33:41;1.00;;;0.73;;
56239;SDS011;42154;51.992;5.896;2023-07-31T00:36:06;1.35;;;0.80;;
56239;SDS011;42154;51.992;5.896;2023-07-31T00:38:32;1.50;;;1.00;;
56239;SDS011;42154;51.992;5.896;2023-07-31T00:40:58;1.33;;;1.02;;
56239;SDS011;42154;51.992;5.896;2023-07-31T00:43:25;1.52;;;1.00;;
56239;SDS011;42154;51.992;5.896;2023-07-31T00:45:51;1.63;;;1.10;;
56239;SDS011;42154;51.992;5.896;2023-07-31T00:48:16;1.45;;;1.10;;
56239;SDS011;42154;51.992;5.896;2023-07-31T00:50:42;1.67;;;1.10;;
56239;SDS011;42154;51.992;5.896;2023-07-31T00:53:08;3.28;;;1.70;;
56239;SDS011;42154;51.992;5.896;2023-07-31T00:55:34;4.38;;;2.28;;
56239;SDS011;42154;51.992;5.896;2023-07-31T00:58:00;7.57;;;3.35;;
56239;SDS011;42154;51.992;5.896;2023-07-31T01:00:25;5.50;;;2.97;;
56239;SDS011;42154;51.992;5.896;2023-07-31T01:02:51;7.05;;;3.58;;
56239;SDS011;42154;51.992;5.896;2023-07-31T01:05:19;12.13;;;5.30;;
56239;SDS011;42154;51.992;5.896;2023-07-31T01:08:15;12.68;;;5.43;;
56239;SDS011;42154;51.992;5.896;2023-07-31T01:10:50;13.40;;;6.13;;
56239;SDS011;42154;51.992;5.896;2023-07-31T01:13:24;19.27;;;9.07;;
56239;SDS011;42154;51.992;5.896;2023-07-31T01:15:50;15.93;;;7.45;;
56239;SDS011;42154;51.992;5.896;2023-07-31T01:18:16;17.67;;;7.47;;
56239;SDS011;42154;51.992;5.896;2023-07-31T01:20:42;21.08;;;8.88;;
56239;SDS011;42154;51.992;5.896;2023-07-31T01:23:15;22.58;;;8.18;;
56239;SDS011;42154;51.992;5.896;2023-07-31T01:28:39;18.58;;;8.98;;
56239;SDS011;42154;51.992;5.896;2023-07-31T01:31:12;22.95;;;9.20;;
56239;SDS011;42154;51.992;5.896;2023-07-31T01:33:41;24.80;;;9.30;;
56239;SDS011;42154;51.992;5.896;2023-07-31T01:36:07;23.58;;;8.45;;
56239;SDS011;42154;51.992;5.896;2023-07-31T01:38:33;13.95;;;7.20;;
56239;SDS011;42154;51.992;5.896;2023-07-31T01:41:01;16.33;;;7.93;;
56239;SDS011;42154;51.992;5.896;2023-07-31T01:43:26;17.58;;;7.93;;
56239;SDS011;42154;51.992;5.896;2023-07-31T01:45:52;16.63;;;7.57;;
56239;SDS011;42154;51.992;5.896;2023-07-31T01:48:18;22.10;;;8.10;;
56239;SDS011;42154;51.992;5.896;2023-07-31T01:50:44;19.73;;;8.32;;
56239;SDS011;42154;51.992;5.896;2023-07-31T01:53:10;21.27;;;8.90;;
56239;SDS011;42154;51.992;5.896;2023-07-31T01:55:37;21.75;;;8.27;;
56239;SDS011;42154;51.992;5.896;2023-07-31T01:58:03;22.92;;;8.80;;
56239;SDS011;42154;51.992;5.896;2023-07-31T02:00:28;24.85;;;8.68;;
56239;SDS011;42154;51.992;5.896;2023-07-31T02:02:54;19.88;;;8.95;;
56239;SDS011;42154;51.992;5.896;2023-07-31T02:05:20;19.08;;;7.78;;
56239;SDS011;42154;51.992;5.896;2023-07-31T02:07:46;25.02;;;8.50;;
56239;SDS011;42154;51.992;5.896;2023-07-31T02:10:12;20.98;;;9.15;;
56239;SDS011;42154;51.992;5.896;2023-07-31T02:12:37;22.75;;;8.63;;
56239;SDS011;42154;51.992;5.896;2023-07-31T02:15:03;21.38;;;8.00;;
56239;SDS011;42154;51.992;5.896;2023-07-31T02:17:29;18.17;;;8.43;;
56239;SDS011;42154;51.992;5.896;2023-07-31T02:19:55;24.25;;;9.35;;
56239;SDS011;42154;51.992;5.896;2023-07-31T02:22:21;20.25;;;8.07;;
56239;SDS011;42154;51.992;5.896;2023-07-31T02:24:46;22.67;;;7.95;;
56239;SDS011;42154;51.992;5.896;2023-07-31T02:27:12;19.70;;;8.13;;
56239;SDS011;42154;51.992;5.896;2023-07-31T02:29:38;15.70;;;6.60;;
56239;SDS011;42154;51.992;5.896;2023-07-31T02:32:03;24.33;;;9.43;;
56239;SDS011;42154;51.992;5.896;2023-07-31T02:34:30;16.85;;;7.45;;
56239;SDS011;42154;51.992;5.896;2023-07-31T02:36:56;15.30;;;6.97;;
56239;SDS011;42154;51.992;5.896;2023-07-31T02:39:21;19.25;;;7.78;;
56239;SDS011;42154;51.992;5.896;2023-07-31T02:41:47;13.07;;;6.18;;
56239;SDS011;42154;51.992;5.896;2023-07-31T02:44:13;13.07;;;6.20;;
56239;SDS011;42154;51.992;5.896;2023-07-31T02:46:39;12.20;;;5.57;;
56239;SDS011;42154;51.992;5.896;2023-07-31T02:49:05;15.43;;;6.80;;
56239;SDS011;42154;51.992;5.896;2023-07-31T02:51:31;15.90;;;7.03;;
56239;SDS011;42154;51.992;5.896;2023-07-31T02:53:56;15.52;;;7.38;;
56239;SDS011;42154;51.992;5.896;2023-07-31T02:56:22;16.67;;;7.15;;
56239;SDS011;42154;51.992;5.896;2023-07-31T02:58:48;18.33;;;8.43;;
56239;SDS011;42154;51.992;5.896;2023-07-31T03:01:14;17.98;;;6.90;;
56239;SDS011;42154;51.992;5.896;2023-07-31T03:03:40;14.60;;;6.63;;
56239;SDS011;42154;51.992;5.896;2023-07-31T03:06:06;19.25;;;6.82;;
56239;SDS011;42154;51.992;5.896;2023-07-31T03:08:32;19.50;;;7.95;;
56239;SDS011;42154;51.992;5.896;2023-07-31T03:10:58;18.15;;;7.32;;
56239;SDS011;42154;51.992;5.896;2023-07-31T03:13:24;13.23;;;6.85;;
56239;SDS011;42154;51.992;5.896;2023-07-31T03:15:50;18.95;;;6.75;;
56239;SDS011;42154;51.992;5.896;2023-07-31T03:18:16;17.40;;;7.20;;
56239;SDS011;42154;51.992;5.896;2023-07-31T03:20:42;18.08;;;7.82;;
56239;SDS011;42154;51.992;5.896;2023-07-31T03:23:09;17.80;;;7.93;;
56239;SDS011;42154;51.992;5.896;2023-07-31T03:25:34;18.48;;;7.90;;
56239;SDS011;42154;51.992;5.896;2023-07-31T03:28:00;18.80;;;6.68;;
56239;SDS011;42154;51.992;5.896;2023-07-31T03:30:26;18.77;;;7.80;;
56239;SDS011;42154;51.992;5.896;2023-07-31T03:32:52;18.65;;;7.47;;
56239;SDS011;42154;51.992;5.896;2023-07-31T03:35:17;19.58;;;7.13;;
56239;SDS011;42154;51.992;5.896;2023-07-31T03:37:43;19.40;;;8.23;;
56239;SDS011;42154;51.992;5.896;2023-07-31T03:40:09;15.50;;;7.18;;
56239;SDS011;42154;51.992;5.896;2023-07-31T03:42:35;20.83;;;6.78;;
56239;SDS011;42154;51.992;5.896;2023-07-31T03:45:01;24.83;;;7.63;;
56239;SDS011;42154;51.992;5.896;2023-07-31T03:47:27;14.93;;;6.60;;
56239;SDS011;42154;51.992;5.896;2023-07-31T03:49:54;15.95;;;6.95;;
56239;SDS011;42154;51.992;5.896;2023-07-31T03:52:20;17.15;;;6.60;;
56239;SDS011;42154;51.992;5.896;2023-07-31T03:54:46;17.45;;;6.90;;
56239;SDS011;42154;51.992;5.896;2023-07-31T03:57:12;21.83;;;7.68;;
56239;SDS011;42154;51.992;5.896;2023-07-31T03:59:37;16.85;;;7.80;;
56239;SDS011;42154;51.992;5.896;2023-07-31T04:02:04;17.00;;;7.15;;
56239;SDS011;42154;51.992;5.896;2023-07-31T04:04:30;16.20;;;6.68;;
56239;SDS011;42154;51.992;5.896;2023-07-31T04:06:55;16.60;;;6.65;;
56239;SDS011;42154;51.992;5.896;2023-07-31T04:09:21;16.75;;;6.88;;
56239;SDS011;42154;51.992;5.896;2023-07-31T04:11:47;17.27;;;6.72;;
56239;SDS011;42154;51.992;5.896;2023-07-31T04:14:12;20.98;;;6.55;;
56239;SDS011;42154;51.992;5.896;2023-07-31T04:16:38;14.20;;;6.65;;
56239;SDS011;42154;51.992;5.896;2023-07-31T04:19:04;15.00;;;6.72;;
56239;SDS011;42154;51.992;5.896;2023-07-31T04:21:30;16.60;;;6.05;;
56239;SDS011;42154;51.992;5.896;2023-07-31T04:23:55;9.95;;;4.85;;
56239;SDS011;42154;51.992;5.896;2023-07-31T04:26:21;18.05;;;6.78;;
56239;SDS011;42154;51.992;5.896;2023-07-31T04:28:47;13.68;;;5.95;;
56239;SDS011;42154;51.992;5.896;2023-07-31T04:31:13;16.50;;;6.88;;
56239;SDS011;42154;51.992;5.896;2023-07-31T04:33:39;16.77;;;6.85;;
56239;SDS011;42154;51.992;5.896;2023-07-31T04:36:04;17.25;;;6.35;;
56239;SDS011;42154;51.992;5.896;2023-07-31T04:38:30;23.40;;;7.05;;
56239;SDS011;42154;51.992;5.896;2023-07-31T04:40:56;17.17;;;7.20;;
56239;SDS011;42154;51.992;5.896;2023-07-31T04:43:22;14.23;;;6.00;;
56239;SDS011;42154;51.992;5.896;2023-07-31T04:45:47;15.73;;;6.57;;
56239;SDS011;42154;51.992;5.896;2023-07-31T04:48:15;14.60;;;6.53;;
56239;SDS011;42154;51.992;5.896;2023-07-31T04:50:40;20.00;;;6.35;;
56239;SDS011;42154;51.992;5.896;2023-07-31T04:53:06;15.10;;;6.07;;
56239;SDS011;42154;51.992;5.896;2023-07-31T04:55:32;13.73;;;6.50;;
56239;SDS011;42154;51.992;5.896;2023-07-31T04:57:58;17.05;;;6.32;;
56239;SDS011;42154;51.992;5.896;2023-07-31T05:00:24;11.40;;;5.85;;
56239;SDS011;42154;51.992;5.896;2023-07-31T05:02:50;12.52;;;4.90;;
56239;SDS011;42154;51.992;5.896;2023-07-31T05:05:16;14.75;;;6.10;;
56239;SDS011;42154;51.992;5.896;2023-07-31T05:07:41;12.32;;;5.60;;
56239;SDS011;42154;51.992;5.896;2023-07-31T05:10:08;14.32;;;5.90;;
56239;SDS011;42154;51.992;5.896;2023-07-31T05:12:34;17.63;;;6.78;;
56239;SDS011;42154;51.992;5.896;2023-07-31T05:15:00;19.27;;;6.63;;
56239;SDS011;42154;51.992;5.896;2023-07-31T05:17:25;13.70;;;6.13;;
56239;SDS011;42154;51.992;5.896;2023-07-31T05:19:51;13.68;;;5.20;;
56239;SDS011;42154;51.992;5.896;2023-07-31T05:22:17;15.93;;;6.13;;
56239;SDS011;42154;51.992;5.896;2023-07-31T05:24:42;19.38;;;6.57;;
56239;SDS011;42154;51.992;5.896;2023-07-31T05:27:08;14.98;;;6.18;;
56239;SDS011;42154;51.992;5.896;2023-07-31T05:29:35;13.63;;;5.55;;
56239;SDS011;42154;51.992;5.896;2023-07-31T05:32:01;12.30;;;5.30;;
56239;SDS011;42154;51.992;5.896;2023-07-31T05:34:26;16.17;;;6.15;;
56239;SDS011;42154;51.992;5.896;2023-07-31T05:36:52;11.52;;;5.32;;
56239;SDS011;42154;51.992;5.896;2023-07-31T05:39:18;12.75;;;4.97;;
56239;SDS011;42154;51.992;5.896;2023-07-31T05:41:45;13.10;;;5.63;;
56239;SDS011;42154;51.992;5.896;2023-07-31T05:44:10;13.75;;;6.47;;
56239;SDS011;42154;51.992;5.896;2023-07-31T05:46:36;14.20;;;6.50;;
56239;SDS011;42154;51.992;5.896;2023-07-31T05:49:02;19.17;;;6.18;;
56239;SDS011;42154;51.992;5.896;2023-07-31T05:51:28;13.50;;;5.07;;
56239;SDS011;42154;51.992;5.896;2023-07-31T05:53:53;12.98;;;5.32;;
56239;SDS011;42154;51.992;5.896;2023-07-31T05:56:19;12.93;;;5.70;;
56239;SDS011;42154;51.992;5.896;2023-07-31T05:58:45;10.95;;;5.05;;
56239;SDS011;42154;51.992;5.896;2023-07-31T06:01:11;14.52;;;6.07;;
56239;SDS011;42154;51.992;5.896;2023-07-31T06:03:36;13.68;;;5.75;;
56239;SDS011;42154;51.992;5.896;2023-07-31T06:06:02;13.65;;;5.47;;
56239;SDS011;42154;51.992;5.896;2023-07-31T06:08:28;12.38;;;5.43;;
56239;SDS011;42154;51.992;5.896;2023-07-31T06:10:53;11.82;;;5.95;;
56239;SDS011;42154;51.992;5.896;2023-07-31T06:13:19;12.52;;;5.07;;
56239;SDS011;42154;51.992;5.896;2023-07-31T06:15:45;11.18;;;5.50;;
56239;SDS011;42154;51.992;5.896;2023-07-31T06:18:11;11.20;;;4.25;;
56239;SDS011;42154;51.992;5.896;2023-07-31T06:20:37;11.18;;;5.30;;
56239;SDS011;42154;51.992;5.896;2023-07-31T06:23:05;14.48;;;5.93;;
56239;SDS011;42154;51.992;5.896;2023-07-31T06:25:31;10.02;;;4.70;;
56239;SDS011;42154;51.992;5.896;2023-07-31T06:27:57;9.93;;;4.88;;
56239;SDS011;42154;51.992;5.896;2023-07-31T06:30:22;8.45;;;4.28;;
56239;SDS011;42154;51.992;5.896;2023-07-31T06:32:48;10.07;;;4.53;;
56239;SDS011;42154;51.992;5.896;2023-07-31T06:35:14;10.25;;;4.43;;
56239;SDS011;42154;51.992;5.896;2023-07-31T06:37:40;8.65;;;4.10;;
56239;SDS011;42154;51.992;5.896;2023-07-31T06:40:08;8.95;;;4.43;;
56239;SDS011;42154;51.992;5.896;2023-07-31T06:42:34;9.63;;;5.25;;
56239;SDS011;42154;51.992;5.896;2023-07-31T06:45:01;10.98;;;5.50;;
56239;SDS011;42154;51.992;5.896;2023-07-31T06:47:27;8.45;;;4.00;;
56239;SDS011;42154;51.992;5.896;2023-07-31T06:49:53;10.98;;;3.78;;
56239;SDS011;42154;51.992;5.896;2023-07-31T06:52:18;8.52;;;3.45;;
56239;SDS011;42154;51.992;5.896;2023-07-31T06:54:59;8.85;;;4.13;;
56239;SDS011;42154;51.992;5.896;2023-07-31T06:57:27;7.10;;;3.80;;
56239;SDS011;42154;51.992;5.896;2023-07-31T06:59:53;9.80;;;4.85;;
56239;SDS011;42154;51.992;5.896;2023-07-31T07:02:19;7.55;;;3.50;;
56239;SDS011;42154;51.992;5.896;2023-07-31T07:04:44;4.88;;;2.65;;
56239;SDS011;42154;51.992;5.896;2023-07-31T07:07:11;6.20;;;3.17;;
56239;SDS011;42154;51.992;5.896;2023-07-31T07:09:37;7.03;;;3.60;;
56239;SDS011;42154;51.992;5.896;2023-07-31T07:12:02;5.32;;;2.58;;
56239;SDS011;42154;51.992;5.896;2023-07-31T07:14:29;4.30;;;2.25;;
56239;SDS011;42154;51.992;5.896;2023-07-31T07:16:54;3.15;;;1.95;;
56239;SDS011;42154;51.992;5.896;2023-07-31T07:19:20;4.50;;;2.22;;
56239;SDS011;42154;51.992;5.896;2023-07-31T07:21:46;2.97;;;1.75;;
56239;SDS011;42154;51.992;5.896;2023-07-31T07:24:11;2.97;;;1.92;;
56239;SDS011;42154;51.992;5.896;2023-07-31T07:26:37;2.70;;;1.40;;
56239;SDS011;42154;51.992;5.896;2023-07-31T07:29:03;2.67;;;1.42;;
56239;SDS011;42154;51.992;5.896;2023-07-31T07:31:29;2.05;;;1.48;;
56239;SDS011;42154;51.992;5.896;2023-07-31T07:33:54;2.55;;;1.60;;
56239;SDS011;42154;51.992;5.896;2023-07-31T07:36:20;2.70;;;1.60;;
56239;SDS011;42154;51.992;5.896;2023-07-31T07:38:46;2.28;;;1.30;;
56239;SDS011;42154;51.992;5.896;2023-07-31T07:41:12;3.70;;;1.52;;
56239;SDS011;42154;51.992;5.896;2023-07-31T07:43:37;2.47;;;1.38;;
56239;SDS011;42154;51.992;5.896;2023-07-31T07:46:03;1.38;;;1.05;;
56239;SDS011;42154;51.992;5.896;2023-07-31T07:48:29;1.02;;;0.80;;
56239;SDS011;42154;51.992;5.896;2023-07-31T07:50:54;1.70;;;1.20;;
56239;SDS011;42154;51.992;5.896;2023-07-31T07:53:20;1.92;;;1.30;;
56239;SDS011;42154;51.992;5.896;2023-07-31T07:55:46;2.47;;;1.42;;
56239;SDS011;42154;51.992;5.896;2023-07-31T07:58:12;1.48;;;0.98;;
56239;SDS011;42154;51.992;5.896;2023-07-31T08:00:37;1.65;;;0.85;;
56239;SDS011;42154;51.992;5.896;2023-07-31T08:03:03;1.17;;;1.08;;
56239;SDS011;42154;51.992;5.896;2023-07-31T08:05:29;1.45;;;1.02;;
56239;SDS011;42154;51.992;5.896;2023-07-31T08:07:55;2.25;;;1.23;;
56239;SDS011;42154;51.992;5.896;2023-07-31T08:10:21;1.00;;;0.82;;
56239;SDS011;42154;51.992;5.896;2023-07-31T08:12:46;1.00;;;0.70;;
56239;SDS011;42154;51.992;5.896;2023-07-31T08:15:12;1.88;;;1.00;;
56239;SDS011;42154;51.992;5.896;2023-07-31T08:17:38;1.83;;;1.10;;
56239;SDS011;42154;51.992;5.896;2023-07-31T08:20:04;1.48;;;1.13;;
56239;SDS011;42154;51.992;5.896;2023-07-31T08:22:30;1.20;;;1.10;;
56239;SDS011;42154;51.992;5.896;2023-07-31T08:24:56;2.35;;;1.63;;
56239;SDS011;42154;51.992;5.896;2023-07-31T08:27:22;1.70;;;1.40;;
56239;SDS011;42154;51.992;5.896;2023-07-31T08:29:48;1.42;;;1.33;;
56239;SDS011;42154;51.992;5.896;2023-07-31T08:32:13;1.63;;;1.50;;
56239;SDS011;42154;51.992;5.896;2023-07-31T08:34:39;2.10;;;1.70;;
56239;SDS011;42154;51.992;5.896;2023-07-31T08:37:05;1.70;;;1.60;;
56239;SDS011;42154;51.992;5.896;2023-07-31T08:39:30;1.73;;;1.45;;
56239;SDS011;42154;51.992;5.896;2023-07-31T08:41:59;1.95;;;1.60;;
56239;SDS011;42154;51.992;5.896;2023-07-31T08:44:25;1.63;;;1.42;;
56239;SDS011;42154;51.992;5.896;2023-07-31T08:46:51;3.22;;;2.33;;
56239;SDS011;42154;51.992;5.896;2023-07-31T08:49:17;2.20;;;1.63;;
56239;SDS011;42154;51.992;5.896;2023-07-31T08:51:45;2.15;;;1.85;;
56239;SDS011;42154;51.992;5.896;2023-07-31T08:54:14;2.50;;;2.30;;
56239;SDS011;42154;51.992;5.896;2023-07-31T08:56:39;3.00;;;2.25;;
56239;SDS011;42154;51.992;5.896;2023-07-31T08:59:05;1.75;;;1.65;;
56239;SDS011;42154;51.992;5.896;2023-07-31T09:01:32;2.33;;;2.05;;
56239;SDS011;42154;51.992;5.896;2023-07-31T09:04:05;2.45;;;1.77;;
56239;SDS011;42154;51.992;5.896;2023-07-31T09:06:32;2.42;;;1.90;;
56239;SDS011;42154;51.992;5.896;2023-07-31T09:08:59;2.60;;;2.25;;
56239;SDS011;42154;51.992;5.896;2023-07-31T09:11:25;2.85;;;2.58;;
56239;SDS011;42154;51.992;5.896;2023-07-31T09:13:52;2.83;;;2.05;;
56239;SDS011;42154;51.992;5.896;2023-07-31T09:16:18;2.35;;;2.15;;
56239;SDS011;42154;51.992;5.896;2023-07-31T09:18:53;2.08;;;1.92;;
56239;SDS011;42154;51.992;5.896;2023-07-31T09:21:23;2.70;;;2.33;;
56239;SDS011;42154;51.992;5.896;2023-07-31T09:23:50;4.35;;;2.92;;
56239;SDS011;42154;51.992;5.896;2023-07-31T09:26:32;4.32;;;3.28;;
56239;SDS011;42154;51.992;5.896;2023-07-31T09:28:59;6.07;;;3.05;;
56239;SDS011;42154;51.992;5.896;2023-07-31T09:31:33;3.25;;;2.75;;
56239;SDS011;42154;51.992;5.896;2023-07-31T09:34:03;4.00;;;3.60;;
56239;SDS011;42154;51.992;5.896;2023-07-31T09:36:29;3.38;;;3.08;;
56239;SDS011;42154;51.992;5.896;2023-07-31T09:39:02;4.18;;;3.60;;
56239;SDS011;42154;51.992;5.896;2023-07-31T09:43:55;5.90;;;4.32;;
56239;SDS011;42154;51.992;5.896;2023-07-31T09:46:21;4.68;;;4.07;;
56239;SDS011;42154;51.992;5.896;2023-07-31T09:48:47;4.93;;;4.18;;
56239;SDS011;42154;51.992;5.896;2023-07-31T09:51:13;4.70;;;4.25;;
56239;SDS011;42154;51.992;5.896;2023-07-31T09:53:38;5.05;;;4.55;;
56239;SDS011;42154;51.992;5.896;2023-07-31T09:56:04;6.38;;;5.00;;
56239;SDS011;42154;51.992;5.896;2023-07-31T09:58:30;6.90;;;5.57;;
56239;SDS011;42154;51.992;5.896;2023-07-31T10:01:00;7.03;;;5.60;;
56239;SDS011;42154;51.992;5.896;2023-07-31T10:03:27;7.03;;;5.82;;
56239;SDS011;42154;51.992;5.896;2023-07-31T10:05:57;7.93;;;5.80;;
56239;SDS011;42154;51.992;5.896;2023-07-31T10:08:29;8.40;;;6.50;;
56239;SDS011;42154;51.992;5.896;2023-07-31T10:10:58;8.05;;;5.72;;
56239;SDS011;42154;51.992;5.896;2023-07-31T10:13:25;6.43;;;5.22;;
56239;SDS011;42154;51.992;5.896;2023-07-31T10:15:53;7.80;;;5.95;;
56239;SDS011;42154;51.992;5.896;2023-07-31T10:18:20;5.97;;;5.32;;
56239;SDS011;42154;51.992;5.896;2023-07-31T10:20:46;7.55;;;5.45;;
56239;SDS011;42154;51.992;5.896;2023-07-31T10:23:13;6.45;;;5.68;;
56239;SDS011;42154;51.992;5.896;2023-07-31T10:25:39;7.25;;;6.18;;
56239;SDS011;42154;51.992;5.896;2023-07-31T10:28:05;9.18;;;7.05;;
56239;SDS011;42154;51.992;5.896;2023-07-31T10:30:32;6.85;;;6.15;;
56239;SDS011;42154;51.992;5.896;2023-07-31T10:33:00;9.32;;;6.57;;
56239;SDS011;42154;51.992;5.896;2023-07-31T10:35:27;10.10;;;7.10;;
56239;SDS011;42154;51.992;5.896;2023-07-31T10:37:53;8.98;;;6.75;;
56239;SDS011;42154;51.992;5.896;2023-07-31T10:40:19;9.00;;;7.38;;
56239;SDS011;42154;51.992;5.896;2023-07-31T10:42:50;7.47;;;6.65;;
56239;SDS011;42154;51.992;5.896;2023-07-31T10:48:13;13.18;;;7.82;;
56239;SDS011;42154;51.992;5.896;2023-07-31T10:50:47;8.13;;;6.60;;
56239;SDS011;42154;51.992;5.896;2023-07-31T10:53:24;7.43;;;6.15;;
56239;SDS011;42154;51.992;5.896;2023-07-31T10:55:51;7.97;;;6.32;;
56239;SDS011;42154;51.992;5.896;2023-07-31T10:58:18;9.68;;;6.55;;
56239;SDS011;42154;51.992;5.896;2023-07-31T11:00:45;7.45;;;5.97;;
56239;SDS011;42154;51.992;5.896;2023-07-31T11:03:15;7.70;;;5.95;;
56239;SDS011;42154;51.992;5.896;2023-07-31T11:13:40;6.43;;;5.07;;
56239;SDS011;42154;51.992;5.896;2023-07-31T11:16:08;9.05;;;6.28;;
56239;SDS011;42154;51.992;5.896;2023-07-31T11:18:35;6.38;;;5.20;;
56239;SDS011;42154;51.992;5.896;2023-07-31T11:21:03;7.90;;;5.57;;
56239;SDS011;42154;51.992;5.896;2023-07-31T11:23:30;7.75;;;5.43;;
56239;SDS011;42154;51.992;5.896;2023-07-31T11:25:58;5.28;;;4.78;;
56239;SDS011;42154;51.992;5.896;2023-07-31T11:28:25;8.32;;;6.65;;
56239;SDS011;42154;51.992;5.896;2023-07-31T11:30:50;5.63;;;4.38;;
56239;SDS011;42154;51.992;5.896;2023-07-31T11:33:16;7.57;;;6.22;;
56239;SDS011;42154;51.992;5.896;2023-07-31T11:35:46;6.68;;;5.45;;
56239;SDS011;42154;51.992;5.896;2023-07-31T11:40:59;7.93;;;5.32;;
56239;SDS011;42154;51.992;5.896;2023-07-31T11:43:33;6.82;;;5.82;;
56239;SDS011;42154;51.992;5.896;2023-07-31T11:46:01;7.30;;;4.60;;
56239;SDS011;42154;51.992;5.896;2023-07-31T11:51:00;7.13;;;5.35;;
56239;SDS011;42154;51.992;5.896;2023-07-31T11:56:02;6.95;;;5.10;;
56239;SDS011;42154;51.992;5.896;2023-07-31T11:58:31;6.18;;;4.93;;
56239;SDS011;42154;51.992;5.896;2023-07-31T12:00:59;5.25;;;4.43;;
56239;SDS011;42154;51.992;5.896;2023-07-31T12:03:25;6.40;;;5.47;;
56239;SDS011;42154;51.992;5.896;2023-07-31T12:05:52;7.35;;;4.70;;
56239;SDS011;42154;51.992;5.896;2023-07-31T12:08:20;5.30;;;4.50;;
56239;SDS011;42154;51.992;5.896;2023-07-31T12:10:47;7.20;;;4.97;;
56239;SDS011;42154;51.992;5.896;2023-07-31T12:13:20;5.13;;;4.60;;
56239;SDS011;42154;51.992;5.896;2023-07-31T12:15:54;5.95;;;4.40;;
56239;SDS011;42154;51.992;5.896;2023-07-31T12:18:22;7.72;;;4.75;;
56239;SDS011;42154;51.992;5.896;2023-07-31T12:20:54;6.00;;;4.28;;
56239;SDS011;42154;51.992;5.896;2023-07-31T12:23:25;5.60;;;5.03;;
56239;SDS011;42154;51.992;5.896;2023-07-31T12:28:39;4.95;;;4.38;;
56239;SDS011;42154;51.992;5.896;2023-07-31T12:31:08;4.90;;;3.80;;
56239;SDS011;42154;51.992;5.896;2023-07-31T12:33:35;5.00;;;4.15;;
56239;SDS011;42154;51.992;5.896;2023-07-31T12:36:03;4.57;;;3.92;;
56239;SDS011;42154;51.992;5.896;2023-07-31T12:38:31;4.80;;;4.10;;
56239;SDS011;42154;51.992;5.896;2023-07-31T12:40:58;4.72;;;4.07;;
56239;SDS011;42154;51.992;5.896;2023-07-31T12:43:23;7.03;;;5.43;;
56239;SDS011;42154;51.992;5.896;2023-07-31T12:45:49;4.63;;;3.90;;
56239;SDS011;42154;51.992;5.896;2023-07-31T12:48:15;6.82;;;5.13;;
56239;SDS011;42154;51.992;5.896;2023-07-31T12:50:41;5.68;;;5.05;;
56239;SDS011;42154;51.992;5.896;2023-07-31T12:53:06;6.03;;;4.00;;
56239;SDS011;42154;51.992;5.896;2023-07-31T12:55:32;8.95;;;4.95;;
56239;SDS011;42154;51.992;5.896;2023-07-31T12:58:00;6.05;;;4.45;;
56239;SDS011;42154;51.992;5.896;2023-07-31T13:00:26;5.25;;;4.65;;
56239;SDS011;42154;51.992;5.896;2023-07-31T13:02:52;6.53;;;4.80;;
56239;SDS011;42154;51.992;5.896;2023-07-31T13:05:18;6.25;;;4.60;;
56239;SDS011;42154;51.992;5.896;2023-07-31T13:07:45;5.70;;;5.13;;
56239;SDS011;42154;51.992;5.896;2023-07-31T13:10:12;7.47;;;5.32;;
56239;SDS011;42154;51.992;5.896;2023-07-31T13:12:38;6.80;;;4.95;;
56239;SDS011;42154;51.992;5.896;2023-07-31T13:15:04;4.65;;;4.18;;
56239;SDS011;42154;51.992;5.896;2023-07-31T13:17:31;5.93;;;5.22;;
56239;SDS011;42154;51.992;5.896;2023-07-31T13:19:57;6.55;;;5.20;;
56239;SDS011;42154;51.992;5.896;2023-07-31T13:22:24;6.55;;;4.97;;
56239;SDS011;42154;51.992;5.896;2023-07-31T13:24:51;5.65;;;4.78;;
56239;SDS011;42154;51.992;5.896;2023-07-31T13:27:16;8.73;;;6.07;;
56239;SDS011;42154;51.992;5.896;2023-07-31T13:29:53;5.70;;;4.65;;
56239;SDS011;42154;51.992;5.896;2023-07-31T13:32:19;5.38;;;4.70;;
56239;SDS011;42154;51.992;5.896;2023-07-31T13:34:46;6.38;;;5.15;;
56239;SDS011;42154;51.992;5.896;2023-07-31T13:37:13;6.90;;;4.70;;
56239;SDS011;42154;51.992;5.896;2023-07-31T13:39:39;5.30;;;4.53;;
56239;SDS011;42154;51.992;5.896;2023-07-31T13:42:05;6.38;;;4.65;;
56239;SDS011;42154;51.992;5.896;2023-07-31T13:44:35;7.75;;;4.80;;
56239;SDS011;42154;51.992;5.896;2023-07-31T13:47:01;4.82;;;4.32;;
56239;SDS011;42154;51.992;5.896;2023-07-31T13:49:28;5.20;;;4.15;;
56239;SDS011;42154;51.992;5.896;2023-07-31T13:51:54;7.13;;;4.85;;
56239;SDS011;42154;51.992;5.896;2023-07-31T13:54:20;6.68;;;5.30;;
56239;SDS011;42154;51.992;5.896;2023-07-31T13:56:47;7.93;;;4.32;;
56239;SDS011;42154;51.992;5.896;2023-07-31T13:59:12;5.38;;;4.68;;
56239;SDS011;42154;51.992;5.896;2023-07-31T14:01:40;6.78;;;4.45;;
56239;SDS011;42154;51.992;5.896;2023-07-31T14:04:05;4.80;;;4.30;;
56239;SDS011;42154;51.992;5.896;2023-07-31T14:06:31;4.95;;;4.10;;
56239;SDS011;42154;51.992;5.896;2023-07-31T14:08:57;5.53;;;4.43;;
56239;SDS011;42154;51.992;5.896;2023-07-31T14:11:23;5.43;;;4.80;;
56239;SDS011;42154;51.992;5.896;2023-07-31T14:13:49;7.93;;;3.95;;
56239;SDS011;42154;51.992;5.896;2023-07-31T14:16:16;6.43;;;5.22;;
56239;SDS011;42154;51.992;5.896;2023-07-31T14:18:42;5.97;;;4.60;;
56239;SDS011;42154;51.992;5.896;2023-07-31T14:21:08;7.03;;;5.05;;
56239;SDS011;42154;51.992;5.896;2023-07-31T14:23:34;10.50;;;5.53;;
56239;SDS011;42154;51.992;5.896;2023-07-31T14:26:00;7.53;;;4.70;;
56239;SDS011;42154;51.992;5.896;2023-07-31T14:28:26;8.75;;;6.00;;
56239;SDS011;42154;51.992;5.896;2023-07-31T14:30:51;9.40;;;4.57;;
56239;SDS011;42154;51.992;5.896;2023-07-31T14:33:17;5.80;;;5.00;;
56239;SDS011;42154;51.992;5.896;2023-07-31T14:35:43;7.88;;;5.60;;
56239;SDS011;42154;51.992;5.896;2023-07-31T14:38:09;11.35;;;6.45;;
56239;SDS011;42154;51.992;5.896;2023-07-31T14:40:34;7.80;;;5.13;;
56239;SDS011;42154;51.992;5.896;2023-07-31T14:43:01;6.32;;;4.97;;
56239;SDS011;42154;51.992;5.896;2023-07-31T14:45:27;8.18;;;5.40;;
56239;SDS011;42154;51.992;5.896;2023-07-31T14:47:53;8.55;;;5.70;;
56239;SDS011;42154;51.992;5.896;2023-07-31T14:50:19;6.53;;;4.35;;
56239;SDS011;42154;51.992;5.896;2023-07-31T14:52:45;6.53;;;4.82;;
56239;SDS011;42154;51.992;5.896;2023-07-31T14:55:11;6.90;;;4.90;;
56239;SDS011;42154;51.992;5.896;2023-07-31T14:57:37;5.95;;;5.13;;
56239;SDS011;42154;51.992;5.896;2023-07-31T15:00:03;6.55;;;4.68;;
56239;SDS011;42154;51.992;5.896;2023-07-31T15:02:33;7.88;;;6.03;;
56239;SDS011;42154;51.992;5.896;2023-07-31T15:04:59;7.05;;;5.00;;
56239;SDS011;42154;51.992;5.896;2023-07-31T15:07:25;6.72;;;4.55;;